Time;durP1;ratioP1;P1;durP2;ratioP2;P2;SDS_P1;SDS_P2;PMS_P1;PMS_P2;Temp;Humidity;BMP_temperature;BMP_pressure;BME280_temperature;BME280_humidity;BME280_pressure;Samples;Min_cycle;Max_cycle;Signal;HPM_P1;HPM_P2
2022/11/20 00:00:47;;;;;;;14.50;5.57;;;;;;;-13.74;69.29;97828.72;6157641;28;20058;-67
2022/11/20 00:03:53;;;;;;;16.33;5.88;;;;;;;-13.91;69.37;97831.34;6163349;28;20054;-64
2022/11/20 00:06:57;;;;;;;10.50;5.40;;;;;;;-14.03;68.81;97841.78;6159357;28;20046;-65
2022/11/20 00:09:59;;;;;;;16.92;5.63;;;;;;;-14.13;69.34;97836.22;6159582;28;20056;-66
2022/11/20 00:13:07;;;;;;;11.75;5.38;;;;;;;-14.26;69.63;97837.31;6164447;28;20038;-65
2022/11/20 00:16:17;;;;;;;15.45;5.40;;;;;;;-14.36;69.84;97835.13;6175722;28;20050;-65
2022/11/20 00:19:21;;;;;;;8.63;4.93;;;;;;;-14.46;69.83;97823.75;6157662;28;20414;-65
2022/11/20 00:22:25;;;;;;;;;;;;;;;-14.50;69.86;97827.75;6164846;28;20421;-65
2022/11/20 00:25:29;;;;;;;11.05;4.82;;;;;;;-14.59;69.68;97832.41;6157314;28;20018;-65
2022/11/20 00:28:30;;;;;;;12.15;5.78;;;;;;;-14.62;69.90;97832.28;6161457;28;22209;-67
2022/11/20 00:31:38;;;;;;;11.88;4.88;;;;;;;-14.64;69.93;97838.91;6161282;28;20461;-66
2022/11/20 00:34:39;;;;;;;11.50;5.28;;;;;;;-14.67;69.81;97840.41;6160457;28;20058;-65
2022/11/20 00:37:43;;;;;;;13.02;5.47;;;;;;;-14.78;69.95;97839.88;6163600;28;21362;-64
2022/11/20 00:40:46;;;;;;;12.90;6.38;;;;;;;-14.90;69.48;97844.34;6154737;28;20042;-65
2022/11/20 00:43:48;;;;;;;10.10;5.78;;;;;;;-15.03;69.72;97843.75;6155157;28;20050;-66
2022/11/20 00:46:49;;;;;;;9.55;4.80;;;;;;;-15.14;69.51;97846.50;6151889;28;20058;-64
2022/11/20 00:49:53;;;;;;;11.25;5.18;;;;;;;-15.26;69.58;97844.22;6155235;28;20043;-64
2022/11/20 00:52:55;;;;;;;11.95;5.50;;;;;;;-15.40;69.51;97844.41;6147256;28;20073;-65
2022/11/20 00:56:11;;;;;;;13.93;5.97;;;;;;;-15.46;69.65;97848.25;6158847;28;20077;-64
2022/11/20 00:59:13;;;;;;;13.35;5.57;;;;;;;-15.63;69.29;97843.19;6169385;28;20046;-63
2022/11/20 01:02:16;;;;;;;16.63;6.32;;;;;;;-15.72;69.40;97846.94;6146990;28;20045;-65
2022/11/20 01:05:19;;;;;;;13.75;7.68;;;;;;;-15.78;69.66;97851.69;6144633;28;20081;-65
2022/11/20 01:08:23;;;;;;;17.98;7.75;;;;;;;-15.87;69.47;97857.97;6145253;28;20061;-64
2022/11/20 01:11:31;;;;;;;;;;;;;;;-15.88;68.99;97856.25;6152774;28;20070;-64
2022/11/20 01:14:32;;;;;;;17.73;7.53;;;;;;;-15.98;69.42;97854.00;6149770;28;20536;-64
2022/11/20 01:17:33;;;;;;;32.67;13.75;;;;;;;-16.03;69.46;97852.88;6149579;28;20061;-64
2022/11/20 01:20:35;;;;;;;21.02;9.77;;;;;;;-16.10;68.96;97853.34;6150178;28;20069;-64
2022/11/20 01:23:45;;;;;;;24.40;11.57;;;;;;;-16.17;68.74;97851.28;6150650;28;20327;-65
2022/11/20 01:26:49;;;;;;;18.75;9.70;;;;;;;-16.22;68.55;97842.59;6169586;28;20046;-64
2022/11/20 01:29:53;;;;;;;24.20;9.65;;;;;;;-16.28;68.68;97842.25;6151502;28;20046;-64
2022/11/20 01:32:55;;;;;;;19.50;8.50;;;;;;;-16.31;68.95;97833.75;6151222;28;20055;-64
2022/11/20 01:36:05;;;;;;;20.67;11.20;;;;;;;-16.40;68.71;97832.38;6147416;28;20050;-65
2022/11/20 01:39:17;;;;;;;26.27;10.23;;;;;;;-16.47;68.74;97831.19;6159112;28;20093;-65
2022/11/20 01:46:04;;;;;;;15.18;7.40;;;;;;;-16.59;68.21;97826.31;6160728;28;20124;-65
2022/11/20 01:49:10;;;;;;;15.55;7.88;;;;;;;-16.64;68.22;97830.25;6172450;28;20038;-64
2022/11/20 01:52:20;;;;;;;20.42;9.25;;;;;;;-16.71;68.16;97827.31;6152066;28;20041;-65
2022/11/20 01:55:36;;;;;;;25.33;10.82;;;;;;;-16.83;68.21;97820.84;6131470;28;20061;-65
2022/11/20 01:58:42;;;;;;;;;;;;;;;-16.82;66.96;97824.22;6155380;28;20136;-65
2022/11/20 02:01:46;;;;;;;32.30;13.88;;;;;;;-16.92;67.41;97822.84;6152456;28;19922;-65
2022/11/20 02:04:56;;;;;;;29.05;12.40;;;;;;;-16.98;67.59;97823.38;6157321;28;20453;-65
2022/11/20 02:07:59;;;;;;;25.38;10.60;;;;;;;-17.02;67.82;97818.91;6149316;28;20046;-64
2022/11/20 02:11:03;;;;;;;18.95;9.85;;;;;;;-17.07;67.64;97814.41;6159139;28;20399;-64
2022/11/20 02:14:07;;;;;;;23.65;9.98;;;;;;;-17.11;67.57;97815.03;6158739;28;20038;-64
2022/11/20 02:17:11;;;;;;;27.00;9.35;;;;;;;-17.16;67.44;97804.69;6171478;28;20051;-65
2022/11/20 02:20:14;;;;;;;23.95;11.25;;;;;;;-17.21;67.11;97796.91;6157485;28;20054;-64
2022/11/20 02:23:32;;;;;;;22.85;11.10;;;;;;;-17.22;67.20;97804.34;6150693;28;20663;-65
2022/11/20 02:26:40;;;;;;;27.75;11.80;;;;;;;-17.26;67.16;97787.34;6155465;28;20053;-63
2022/11/20 02:29:47;;;;;;;40.50;17.17;;;;;;;-17.28;67.03;97799.81;6149598;28;20042;-65
2022/11/20 02:32:50;;;;;;;38.80;19.50;;;;;;;-17.33;66.31;97795.31;6153845;28;20062;-65
2022/11/20 02:35:52;;;;;;;27.27;14.40;;;;;;;-17.39;65.97;97802.50;6149705;28;20046;-65
2022/11/20 02:38:53;;;;;;;37.63;16.83;;;;;;;-17.45;65.67;97805.53;6168714;28;20038;-64
2022/11/20 02:42:00;;;;;;;35.92;14.48;;;;;;;-17.47;66.07;97802.06;6155585;28;20069;-65
2022/11/20 02:45:02;;;;;;;34.80;13.35;;;;;;;-17.54;66.15;97789.91;6152125;28;20097;-64
2022/11/20 02:48:06;;;;;;;24.57;9.33;;;;;;;-17.48;66.41;97796.16;6159075;28;20050;-66
2022/11/20 02:51:10;;;;;;;27.40;11.02;;;;;;;-17.49;66.49;97788.50;6155687;28;20053;-65
2022/11/20 02:54:14;;;;;;;16.48;6.90;;;;;;;-17.52;66.35;97783.31;6158526;28;20643;-64
2022/11/20 02:57:18;;;;;;;19.67;9.02;;;;;;;-17.52;66.60;97778.28;6147334;28;20042;-64
2022/11/20 03:00:21;;;;;;;22.95;9.55;;;;;;;-17.58;66.55;97778.78;6154893;28;21898;-66
2022/11/20 03:03:22;;;;;;;23.70;9.85;;;;;;;-17.56;66.46;97786.44;6149151;28;20585;-64
2022/11/20 03:06:23;;;;;;;15.70;7.63;;;;;;;-17.55;66.57;97784.00;6167391;28;20045;-64
2022/11/20 03:09:27;;;;;;;14.18;7.25;;;;;;;-17.55;66.51;97786.50;6153728;28;20080;-64
2022/11/20 03:12:28;;;;;;;16.63;8.07;;;;;;;-17.57;66.17;97789.75;6158125;28;20508;-65
2022/11/20 03:15:29;;;;;;;19.95;8.02;;;;;;;-17.57;66.25;97789.75;6160237;28;20493;-65
2022/11/20 03:18:33;;;;;;;;;;;;;;;-17.50;66.29;97791.81;6149999;28;20054;-65
2022/11/20 03:21:34;;;;;;;16.08;7.25;;;;;;;-17.53;66.59;97791.63;6147132;28;20621;-65
2022/11/20 03:24:39;;;;;;;14.13;6.47;;;;;;;-17.83;66.65;97731.31;6157990;28;20046;-64
2022/11/20 03:27:43;;;;;;;13.07;6.07;;;;;;;-17.44;66.67;97777.06;6170149;28;20413;-64
2022/11/20 03:30:44;;;;;;;13.98;6.70;;;;;;;-17.37;66.96;97769.13;6144848;28;20046;-65
2022/11/20 03:33:47;;;;;;;20.15;7.90;;;;;;;-17.31;66.80;97763.56;6156971;28;20436;-65
2022/11/20 03:36:49;;;;;;;18.35;8.85;;;;;;;-17.41;66.79;97747.06;6144885;28;20552;-65
2022/11/20 03:39:50;;;;;;;12.45;5.55;;;;;;;-17.34;66.61;97756.72;6148320;28;20058;-65
2022/11/20 03:42:56;;;;;;;16.58;7.63;;;;;;;-17.40;66.68;97753.84;6160793;28;20046;-67
2022/11/20 03:46:00;;;;;;;19.55;8.27;;;;;;;-17.62;66.83;97729.13;6157815;28;20038;-68
2022/11/20 03:49:04;;;;;;;21.38;8.55;;;;;;;-17.53;66.74;97761.47;6162418;28;20038;-69
2022/11/20 03:52:07;;;;;;;17.10;8.15;;;;;;;-17.48;66.97;97783.59;6159980;28;20081;-67
2022/11/20 03:55:16;;;;;;;17.50;9.10;;;;;;;-17.53;66.92;97771.53;6159783;28;20038;-68
2022/11/20 03:58:20;;;;;;;20.33;9.23;;;;;;;-17.46;66.84;97773.63;6170718;28;20046;-67
2022/11/20 04:01:30;;;;;;;13.40;6.38;;;;;;;-17.41;67.02;97767.19;6189035;28;20083;-65
2022/11/20 04:04:34;;;;;;;20.70;8.23;;;;;;;-17.33;66.98;97748.38;6190167;28;20043;-65
2022/11/20 04:07:38;;;;;;;21.30;8.75;;;;;;;-17.21;67.04;97756.63;6192826;28;20077;-64
2022/11/20 04:10:39;;;;;;;19.63;9.70;;;;;;;-17.12;66.88;97755.38;6195313;28;20042;-64
2022/11/20 04:13:48;;;;;;;22.48;10.90;;;;;;;-17.06;66.45;97758.28;6175048;28;20035;-66
2022/11/20 04:16:52;;;;;;;28.52;11.77;;;;;;;-17.03;66.46;97750.91;6167135;28;20529;-65
2022/11/20 04:19:56;;;;;;;14.38;8.20;;;;;;;-16.99;66.50;97748.63;6166128;28;20042;-65
2022/11/20 04:23:03;;;;;;;15.80;8.02;;;;;;;-16.91;66.40;97751.56;6169897;28;20104;-65
2022/11/20 04:26:07;;;;;;;16.85;8.75;;;;;;;-16.86;66.50;97744.28;6168312;28;20425;-65
2022/11/20 04:29:12;;;;;;;25.80;11.52;;;;;;;-16.81;66.41;97743.75;6168216;28;20046;-65
2022/11/20 04:32:16;;;;;;;18.90;9.60;;;;;;;-16.73;66.32;97743.25;6167032;28;21147;-65
2022/11/20 04:35:17;;;;;;;15.88;7.28;;;;;;;-16.57;66.40;97748.34;6165125;28;20046;-65
2022/11/20 04:38:18;;;;;;;10.75;7.15;;;;;;;-16.49;66.38;97752.16;6174846;28;20425;-65
2022/11/20 04:41:23;;;;;;;17.15;8.13;;;;;;;-16.27;66.27;97753.28;6165254;28;20042;-65
2022/11/20 04:44:27;;;;;;;17.73;10.20;;;;;;;-16.13;66.20;97747.34;6171714;28;20042;-65
2022/11/20 04:47:33;;;;;;;15.90;8.68;;;;;;;-16.05;66.09;97750.22;6165814;28;20042;-64
2022/11/20 04:50:39;;;;;;;20.15;8.77;;;;;;;-16.03;65.90;97734.41;6145771;28;20046;-64
2022/11/20 04:53:45;;;;;;;26.58;11.02;;;;;;;-15.89;66.13;97733.47;6153185;28;20557;-66
2022/11/20 04:56:50;;;;;;;37.60;15.07;;;;;;;-15.78;65.85;97733.16;6153946;28;20138;-64
2022/11/20 04:59:51;;;;;;;46.05;17.27;;;;;;;-15.71;65.75;97733.56;6163342;28;20042;-65
2022/11/20 05:02:52;;;;;;;43.88;16.35;;;;;;;-15.58;65.79;97734.97;6169957;28;20500;-66
2022/11/20 05:05:53;;;;;;;35.90;15.18;;;;;;;-15.50;65.49;97737.91;6172419;28;20049;-65
2022/11/20 05:08:55;;;;;;;36.22;16.83;;;;;;;-15.56;65.70;97708.19;6167780;28;20046;-65
2022/11/20 05:11:56;;;;;;;40.67;15.35;;;;;;;-15.33;65.22;97721.06;6178715;28;20043;-64
2022/11/20 05:14:57;;;;;;;27.33;10.10;;;;;;;-15.28;65.24;97719.63;6155937;28;20556;-64
2022/11/20 05:17:59;;;;;;;15.18;7.47;;;;;;;-15.05;65.38;97719.09;6151480;28;20104;-64
2022/11/20 05:21:02;;;;;;;9.60;5.18;;;;;;;-14.91;65.35;97712.16;6150670;28;20636;-64
2022/11/20 05:24:04;;;;;;;23.67;8.57;;;;;;;-14.67;65.37;97717.50;6155991;28;20057;-64
2022/11/20 05:27:05;;;;;;;23.05;9.90;;;;;;;-14.50;65.28;97711.50;6158699;28;20057;-64
2022/11/20 05:30:08;;;;;;;29.05;12.80;;;;;;;-14.40;64.95;97712.81;6150754;28;20128;-65
2022/11/20 05:33:09;;;;;;;36.13;11.40;;;;;;;-14.27;65.35;97714.22;6160528;28;20529;-65
2022/11/20 05:36:13;;;;;;;23.25;9.35;;;;;;;-14.18;65.03;97707.06;6168809;28;20058;-65
2022/11/20 05:39:15;;;;;;;19.38;9.75;;;;;;;-14.06;65.41;97715.19;6164216;28;20058;-66
2022/11/20 05:42:31;;;;;;;28.30;10.55;;;;;;;-13.92;65.30;97707.34;6170257;28;20065;-65
2022/11/20 05:45:32;;;;;;;21.80;11.75;;;;;;;-13.79;65.03;97702.00;6182123;28;20204;-66
2022/11/20 05:48:37;;;;;;;;;;;;;;;-13.64;65.37;97710.25;6200359;28;20509;-64
2022/11/20 05:51:38;;;;;;;24.52;11.85;;;;;;;-13.54;65.18;97705.56;6200606;28;19969;-64
2022/11/20 05:54:41;;;;;;;25.85;11.93;;;;;;;-13.40;64.51;97707.88;6197895;28;20082;-64
2022/11/20 05:57:45;;;;;;;20.13;9.82;;;;;;;-13.26;64.96;97703.38;6168355;28;20058;-63
2022/11/20 06:00:46;;;;;;;23.40;10.98;;;;;;;-13.12;64.44;97702.25;6163178;28;20054;-64
2022/11/20 06:03:50;;;;;;;18.73;8.55;;;;;;;-12.95;64.85;97699.53;6150923;28;20046;-64
2022/11/20 06:06:54;;;;;;;28.77;12.48;;;;;;;-12.78;64.30;97693.44;6158521;28;20055;-64
2022/11/20 06:09:58;;;;;;;24.88;12.05;;;;;;;-12.66;64.39;97688.84;6154810;28;20188;-65
2022/11/20 06:13:01;;;;;;;;;;;;;;;-12.47;64.37;97702.25;6152598;28;21309;-63
2022/11/20 06:16:03;;;;;;;22.77;8.48;;;;;;;-12.32;63.86;97700.28;6149115;28;19921;-64
2022/11/20 06:19:04;;;;;;;14.05;7.78;;;;;;;-12.14;64.03;97689.06;6148545;28;20097;-65
2022/11/20 06:22:10;;;;;;;19.35;7.88;;;;;;;-12.16;64.45;97670.41;6150308;28;20046;-64
2022/11/20 06:25:11;;;;;;;17.73;8.10;;;;;;;-12.11;64.58;97674.84;6150286;28;20054;-63
2022/11/20 06:28:14;;;;;;;7.88;4.30;;;;;;;-12.01;64.11;97676.03;6166718;28;20061;-65
2022/11/20 06:31:21;;;;;;;8.02;4.63;;;;;;;-11.92;64.28;97661.13;6183587;28;20414;-65
2022/11/20 06:34:22;;;;;;;9.93;5.57;;;;;;;-9.28;64.21;97671.63;6187683;28;20569;-65
2022/11/20 06:37:23;;;;;;;8.57;4.60;;;;;;;-4.86;57.05;97676.56;6182621;28;20049;-64
2022/11/20 06:40:27;;;;;;;8.57;4.50;;;;;;;-1.25;49.79;97683.22;6182541;28;20046;-64
2022/11/20 06:43:33;;;;;;;12.45;5.18;;;;;;;0.96;47.42;97683.72;6163904;28;20065;-65
2022/11/20 06:46:35;;;;;;;9.68;5.05;;;;;;;2.23;46.50;97679.06;6151885;28;20057;-64
2022/11/20 06:49:38;;;;;;;7.93;3.00;;;;;;;3.52;45.62;97687.59;6167433;28;20059;-64
2022/11/20 06:52:41;;;;;;;5.65;3.50;;;;;;;3.87;45.07;97674.59;6165289;28;20054;-64
2022/11/20 06:55:48;;;;;;;5.72;3.53;;;;;;;4.36;44.57;97671.59;6163724;28;20070;-63
2022/11/20 06:58:53;;;;;;;7.57;3.55;;;;;;;5.23;43.84;97680.38;6164184;28;20050;-64
2022/11/20 07:01:56;;;;;;;6.32;3.42;;;;;;;6.73;41.61;97670.97;6173142;28;20363;-64
2022/11/20 07:04:57;;;;;;;5.60;3.80;;;;;;;7.67;40.70;97669.97;6146031;28;20085;-64
2022/11/20 07:07:59;;;;;;;9.52;3.60;;;;;;;8.38;40.00;97675.78;6166844;28;20050;-65
2022/11/20 07:11:02;;;;;;;5.25;3.17;;;;;;;8.49;40.22;97662.19;6166066;28;20100;-65
2022/11/20 07:14:08;;;;;;;5.65;3.45;;;;;;;9.06;40.73;97678.00;6183051;28;20058;-65
2022/11/20 07:17:10;;;;;;;8.50;3.28;;;;;;;8.79;39.31;97662.63;6196995;28;20069;-65
2022/11/20 07:20:12;;;;;;;8.13;3.47;;;;;;;9.35;40.60;97672.28;6195086;28;20061;-64
2022/11/20 07:23:13;;;;;;;6.97;3.33;;;;;;;9.69;38.09;97664.56;6176123;28;20050;-64
2022/11/20 07:26:15;;;;;;;7.15;3.70;;;;;;;8.72;38.43;97666.44;6147541;28;20054;-63
2022/11/20 07:29:16;;;;;;;6.53;3.08;;;;;;;8.90;38.82;97676.09;6150118;28;20046;-63
2022/11/20 07:32:23;;;;;;;7.38;3.92;;;;;;;8.60;38.28;97656.47;6148057;28;20054;-65
2022/11/20 07:35:25;;;;;;;;;;;;;;;10.15;39.14;97652.59;6154354;28;20050;-64
2022/11/20 07:38:30;;;;;;;6.32;3.55;;;;;;;10.67;37.31;97639.44;6158142;28;20335;-65
2022/11/20 07:41:36;;;;;;;5.32;3.55;;;;;;;10.03;32.23;97645.34;6175084;28;20050;-64
2022/11/20 07:44:39;;;;;;;8.10;4.25;;;;;;;9.56;32.52;97636.25;6179312;28;20054;-63
2022/11/20 07:47:41;;;;;;;10.77;5.47;;;;;;;9.37;32.63;97632.78;6176115;28;20050;-63
2022/11/20 07:50:42;;;;;;;7.25;4.05;;;;;;;10.52;34.42;97641.06;6180940;28;20701;-64
2022/11/20 07:53:43;;;;;;;7.88;4.03;;;;;;;10.66;33.10;97642.13;6176628;28;20053;-64
2022/11/20 07:56:47;;;;;;;9.35;4.97;;;;;;;10.71;32.90;97630.44;6181935;28;20523;-64
2022/11/20 07:59:51;;;;;;;8.05;4.70;;;;;;;11.06;33.84;97630.31;6179535;28;20548;-64
2022/11/20 08:02:52;;;;;;;7.80;4.35;;;;;;;11.45;33.88;97626.41;6176991;28;20050;-64
2022/11/20 08:06:00;;;;;;;8.60;4.20;;;;;;;11.00;32.25;97626.22;6192213;28;20435;-65
2022/11/20 08:09:02;;;;;;;11.10;4.47;;;;;;;10.57;31.00;97625.03;6195765;28;20137;-64
2022/11/20 08:15:23;;;;;;;5.80;3.53;;;;;;;10.37;32.36;97625.25;6199017;28;20054;-64
2022/11/20 08:18:27;;;;;;;8.40;4.40;;;;;;;10.65;32.57;97643.06;6201924;28;20054;-66
2022/11/20 08:21:29;;;;;;;7.72;3.70;;;;;;;10.42;28.02;97633.75;6157183;28;20042;-64
2022/11/20 08:24:31;;;;;;;7.55;4.57;;;;;;;9.22;30.24;97629.13;6182782;28;20133;-65
2022/11/20 08:27:35;;;;;;;7.35;5.07;;;;;;;9.77;30.63;97629.09;6174464;28;20074;-65
2022/11/20 08:30:41;;;;;;;7.10;4.00;;;;;;;10.00;29.32;97635.84;6185187;28;20034;-65
2022/11/20 08:33:45;;;;;;;6.45;4.13;;;;;;;6.99;28.32;97569.72;6177650;28;20042;-71
2022/11/20 08:36:49;;;;;;;9.95;4.75;;;;;;;3.56;33.75;97612.91;6178878;28;20057;-71
2022/11/20 08:39:53;;;;;;;;;;;;;;;3.96;31.94;97610.16;6183300;28;20124;-70
2022/11/20 08:42:54;;;;;;;6.63;4.70;;;;;;;5.82;31.87;97618.41;6175262;28;20991;-71
2022/11/20 08:46:00;;;;;;;6.50;3.65;;;;;;;7.14;28.21;97618.00;6178054;28;20046;-71
2022/11/20 08:49:04;;;;;;;7.03;4.75;;;;;;;7.91;29.71;97610.50;6180631;28;20516;-72
2022/11/20 08:52:05;;;;;;;7.03;4.07;;;;;;;8.25;28.94;97601.16;6180564;28;20038;-72
2022/11/20 08:55:08;;;;;;;12.50;4.80;;;;;;;7.42;30.13;97602.06;6181194;28;20042;-72
2022/11/20 08:58:10;;;;;;;7.65;4.57;;;;;;;7.42;30.26;97596.81;6184838;28;20056;-72
2022/11/20 09:01:16;;;;;;;10.93;6.10;;;;;;;6.78;31.00;97586.25;6186620;28;20043;-72
2022/11/20 09:04:17;;;;;;;9.38;4.80;;;;;;;6.05;30.93;97588.03;6199873;28;20057;-72
2022/11/20 09:07:19;;;;;;;9.05;4.07;;;;;;;5.63;31.32;97592.06;6201512;28;20038;-71
2022/11/20 09:10:23;;;;;;;8.68;4.75;;;;;;;5.82;31.65;97579.22;6199901;28;20140;-71
2022/11/20 09:13:27;;;;;;;9.95;4.38;;;;;;;5.51;31.31;97582.03;6200037;28;20418;-72
2022/11/20 09:16:31;;;;;;;7.20;3.72;;;;;;;5.13;32.40;97580.66;6190114;28;20141;-70
2022/11/20 09:19:36;;;;;;;10.23;4.88;;;;;;;4.12;32.55;97568.06;6181152;28;20061;-71
2022/11/20 09:22:40;;;;;;;10.40;4.80;;;;;;;2.65;34.18;97567.38;6182006;28;20139;-69
2022/11/20 09:25:47;;;;;;;7.63;4.22;;;;;;;2.13;33.59;97564.16;6183266;28;20045;-71
2022/11/20 09:28:51;;;;;;;8.75;4.32;;;;;;;1.35;34.69;97544.88;6180390;28;20042;-70
2022/11/20 09:31:52;;;;;;;8.18;4.63;;;;;;;0.04;36.58;97566.66;6180622;28;20046;-70
2022/11/20 09:35:00;;;;;;;8.15;4.30;;;;;;;-1.24;37.44;97564.44;6187999;28;20129;-69
2022/11/20 09:38:06;;;;;;;7.15;3.58;;;;;;;-2.50;39.55;97564.16;6175397;28;20476;-70
2022/11/20 09:41:27;;;;;;;5.95;3.75;;;;;;;-3.36;40.29;97548.78;6179509;28;20417;-70
2022/11/20 09:44:53;;;;;;;8.85;4.80;;;;;;;-3.86;42.00;97552.94;6186074;28;20054;-71
2022/11/20 09:48:31;;;;;;;7.47;3.53;;;;;;;-4.18;41.92;97544.28;6181867;28;20490;-69
2022/11/20 09:51:38;;;;;;;7.57;4.22;;;;;;;-4.06;42.30;97540.03;6183117;28;20053;-70
2022/11/20 09:54:42;;;;;;;10.63;4.00;;;;;;;-3.59;41.02;97546.19;6179503;28;20054;-69
2022/11/20 09:57:50;;;;;;;9.05;3.90;;;;;;;-3.30;40.82;97538.47;6183572;28;20452;-69
2022/11/20 10:01:00;;;;;;;22.02;8.27;;;;;;;-3.74;40.85;97528.13;6198477;28;20054;-70
2022/11/20 10:04:04;;;;;;;17.05;7.00;;;;;;;-3.47;40.88;97537.63;6199511;28;20050;-70
2022/11/20 10:07:12;;;;;;;11.27;5.45;;;;;;;-1.70;39.09;97544.09;6198928;28;20041;-70
2022/11/20 10:10:42;;;;;;;9.18;4.25;;;;;;;0.13;36.88;97537.22;6198569;28;20042;-71
2022/11/20 10:13:58;;;;;;;8.85;4.47;;;;;;;1.26;34.10;97538.09;6194489;28;20038;-69
2022/11/20 10:17:30;;;;;;;9.05;4.22;;;;;;;0.12;34.98;97518.25;6197801;28;20053;-71
2022/11/20 10:21:05;;;;;;;9.68;4.05;;;;;;;-1.66;37.62;97507.06;6195861;28;20046;-70
2022/11/20 10:24:25;;;;;;;8.70;3.50;;;;;;;-3.05;39.93;97517.91;6156135;28;21221;-70
2022/11/20 10:28:01;;;;;;;7.95;3.85;;;;;;;-4.28;40.99;97512.53;6181454;28;20846;-69
2022/11/20 10:31:07;;;;;;;8.13;4.07;;;;;;;-5.21;42.44;97511.19;6180594;28;20030;-70
2022/11/20 10:34:24;;;;;;;8.25;4.10;;;;;;;-5.74;42.90;97514.16;6178085;28;20410;-69
2022/11/20 10:37:29;;;;;;;7.35;4.43;;;;;;;-6.26;42.70;97507.66;6161830;28;20046;-70
2022/11/20 10:40:44;;;;;;;8.52;3.08;;;;;;;-6.75;43.14;97512.19;6181654;28;20417;-70
2022/11/20 10:43:58;;;;;;;11.70;4.47;;;;;;;-7.31;44.46;97505.41;6180484;28;20038;-70
2022/11/20 10:47:08;;;;;;;8.63;4.20;;;;;;;-7.52;44.55;97505.94;6191193;28;20042;-70
2022/11/20 10:50:16;;;;;;;10.57;4.07;;;;;;;-7.61;44.60;97504.09;6191910;28;20050;-70
2022/11/20 10:53:33;;;;;;;8.13;4.20;;;;;;;-8.39;45.53;97502.72;6198014;28;20046;-69
2022/11/20 10:56:37;;;;;;;9.60;4.05;;;;;;;-8.78;45.99;97513.84;6198907;28;20038;-70
2022/11/20 10:59:55;;;;;;;15.23;5.63;;;;;;;-9.18;47.17;97515.53;6219651;28;20409;-70
2022/11/20 11:03:02;;;;;;;11.20;5.13;;;;;;;-9.60;47.33;97523.88;6207598;28;20069;-69
2022/11/20 11:06:15;;;;;;;8.20;4.07;;;;;;;-9.81;48.07;97520.81;6184293;28;20046;-67
2022/11/20 11:09:38;;;;;;;7.88;4.38;;;;;;;-10.09;48.85;97530.28;6174162;28;20478;-70
2022/11/20 11:12:45;;;;;;;12.07;5.82;;;;;;;-10.34;49.05;97523.72;6170813;28;20574;-70
2022/11/20 11:15:46;;;;;;;6.35;3.95;;;;;;;-10.43;48.89;97521.78;6172123;28;20058;-70
2022/11/20 11:18:51;;;;;;;8.55;4.15;;;;;;;-10.73;49.59;97536.19;6175478;28;20124;-68
2022/11/20 11:21:56;;;;;;;11.68;4.57;;;;;;;-10.85;49.80;97519.75;6180038;28;20034;-69
2022/11/20 11:25:00;;;;;;;6.95;3.83;;;;;;;-10.99;50.19;97513.41;6188582;28;20495;-69
2022/11/20 11:28:16;;;;;;;8.27;4.47;;;;;;;-11.23;50.69;97510.16;6179203;28;20042;-69
2022/11/20 11:31:25;;;;;;;;;;;;;;;-11.15;50.79;97507.03;6176894;28;20536;-69
2022/11/20 11:34:29;;;;;;;9.75;4.55;;;;;;;-11.20;50.95;97505.16;6176638;28;20222;-70
2022/11/20 11:37:38;;;;;;;7.07;3.78;;;;;;;-11.15;50.95;97516.31;6176939;28;20078;-69
2022/11/20 11:40:46;;;;;;;7.75;4.05;;;;;;;-11.12;51.13;97502.03;6179424;28;20506;-70
2022/11/20 11:47:25;;;;;;;5.93;3.67;;;;;;;-11.30;52.03;97512.50;6173716;28;20046;-70
2022/11/20 11:50:30;;;;;;;7.37;4.37;;;;;;;-11.24;52.38;97505.88;6171099;28;20050;-69
2022/11/20 11:53:42;;;;;;;5.65;3.67;;;;;;;-11.26;52.55;97500.75;6174515;28;20433;-70
2022/11/20 11:56:46;;;;;;;;;;;;;;;-11.20;51.93;97502.63;6172625;28;20061;-69
2022/11/20 12:00:11;;;;;;;6.88;3.13;;;;;;;-11.13;52.68;97484.19;6176502;28;19922;-69
2022/11/20 12:03:34;;;;;;;8.70;4.50;;;;;;;-11.35;53.00;97483.56;6171993;28;21120;-69
2022/11/20 12:06:42;;;;;;;9.85;4.18;;;;;;;-11.49;53.43;97481.41;6175162;28;21393;-71
2022/11/20 12:09:51;;;;;;;11.73;4.47;;;;;;;-11.46;53.92;97490.00;6172419;28;20061;-70
2022/11/20 12:13:12;;;;;;;6.40;3.67;;;;;;;-11.42;53.81;97494.34;6180551;28;20053;-70
2022/11/20 12:16:16;;;;;;;6.32;3.92;;;;;;;-11.50;54.30;97490.69;6196329;28;20081;-70
2022/11/20 12:19:20;;;;;;;8.32;3.83;;;;;;;-11.50;54.78;97483.09;6210472;28;20517;-70
2022/11/20 12:22:59;;;;;;;7.43;4.00;;;;;;;-11.50;54.72;97482.22;6193911;28;20038;-70
2022/11/20 12:26:13;;;;;;;7.45;3.88;;;;;;;-11.57;54.94;97496.44;6193813;28;20046;-70
2022/11/20 12:29:58;;;;;;;3.42;2.70;;;;;;;-11.52;54.74;97499.94;6194123;28;20133;-70
2022/11/20 12:33:34;;;;;;;10.82;4.32;;;;;;;-11.71;54.68;97495.97;6171813;28;20035;-69
2022/11/20 12:36:47;;;;;;;5.50;3.60;;;;;;;-11.78;55.52;97507.59;6175440;28;20100;-71
2022/11/20 12:39:56;;;;;;;8.27;4.40;;;;;;;-11.87;55.76;97497.19;6173726;28;20398;-69
2022/11/20 12:46:44;;;;;;;7.38;4.45;;;;;;;-12.06;56.46;97492.31;6173068;28;20049;-69
2022/11/20 12:50:01;;;;;;;7.80;4.60;;;;;;;-12.21;56.85;97498.63;6171390;28;20043;-69
2022/11/20 12:53:21;;;;;;;9.73;4.45;;;;;;;-12.23;57.25;97495.19;6173076;28;20478;-69
2022/11/20 12:56:44;;;;;;;5.05;3.70;;;;;;;-12.32;56.86;97488.91;6171102;28;20421;-69
2022/11/20 13:00:00;;;;;;;7.72;3.70;;;;;;;-12.45;57.52;97485.97;6173896;28;20042;-70
2022/11/20 13:03:20;;;;;;;6.32;3.67;;;;;;;-12.53;57.59;97489.06;6169476;28;20709;-70
2022/11/20 13:06:30;;;;;;;6.53;4.10;;;;;;;-12.62;57.92;97486.19;6176417;28;20409;-69
2022/11/20 13:09:40;;;;;;;10.50;5.18;;;;;;;-12.70;57.71;97469.06;6172271;28;20042;-69
2022/11/20 13:12:58;;;;;;;13.95;4.68;;;;;;;-12.71;58.22;97477.47;6175357;28;20046;-69
2022/11/20 13:16:43;;;;;;;8.10;4.18;;;;;;;-12.94;58.48;97473.25;6179199;28;20054;-70
2022/11/20 13:20:04;;;;;;;10.68;4.38;;;;;;;-13.19;58.54;97472.38;6099475;28;20058;-69
2022/11/20 13:23:11;;;;;;;8.70;4.20;;;;;;;-13.25;58.79;97469.56;6198437;28;20076;-70
2022/11/20 13:26:26;;;;;;;11.13;4.63;;;;;;;-13.27;58.83;97478.84;6182706;28;20043;-69
2022/11/20 13:29:35;;;;;;;7.60;3.70;;;;;;;-13.47;59.01;97439.25;6179926;28;20129;-69
2022/11/20 13:32:36;;;;;;;7.18;4.25;;;;;;;-13.41;59.30;97473.25;6195993;28;20049;-68
2022/11/20 13:35:54;;;;;;;7.85;3.80;;;;;;;-13.52;59.60;97476.19;6197981;28;20108;-69
2022/11/20 13:38:59;;;;;;;8.00;4.45;;;;;;;-13.62;59.95;97475.81;6199530;28;20414;-70
2022/11/20 13:42:25;;;;;;;7.90;3.80;;;;;;;-13.64;59.75;97474.91;6201620;28;20193;-70
2022/11/20 13:45:32;;;;;;;8.55;4.03;;;;;;;-13.70;59.63;97467.09;6199859;28;20046;-70
2022/11/20 13:48:43;;;;;;;7.57;3.72;;;;;;;-13.75;59.76;97462.66;6199057;28;20433;-69
2022/11/20 13:51:56;;;;;;;11.02;4.57;;;;;;;-13.78;59.84;97463.41;6196109;28;20481;-69
2022/11/20 13:55:39;;;;;;;7.55;3.75;;;;;;;-13.76;60.16;97456.72;6181723;28;20047;-69
2022/11/20 13:58:52;;;;;;;9.07;4.30;;;;;;;-13.78;59.84;97460.88;6201689;28;20038;-69
2022/11/20 14:01:54;;;;;;;14.07;5.78;;;;;;;-13.79;59.95;97459.13;6222218;28;20072;-71
2022/11/20 14:05:05;;;;;;;3.83;2.83;;;;;;;-13.76;60.32;97441.53;6201426;28;20049;-68
2022/11/20 14:08:19;;;;;;;12.20;5.88;;;;;;;-13.69;60.51;97453.63;6196426;28;20054;-69
2022/11/20 14:11:31;;;;;;;9.85;5.60;;;;;;;-13.82;60.61;97461.53;6198819;28;20428;-70
2022/11/20 14:14:51;;;;;;;9.85;4.70;;;;;;;-13.87;61.12;97460.50;6198483;28;20062;-69
2022/11/20 14:17:57;;;;;;;7.07;4.68;;;;;;;-13.94;61.05;97461.06;6200751;28;20054;-71
2022/11/20 14:21:03;;;;;;;7.85;4.07;;;;;;;-14.04;60.77;97460.72;6179176;28;20050;-69
2022/11/20 14:24:11;;;;;;;10.30;4.57;;;;;;;-14.07;61.27;97465.63;6171505;28;20042;-68
2022/11/20 14:27:19;;;;;;;3.70;3.03;;;;;;;-14.09;61.49;97462.19;6165379;28;20038;-67
2022/11/20 14:30:36;;;;;;;10.07;4.63;;;;;;;-14.09;61.39;97472.31;6175076;28;20408;-67
2022/11/20 14:33:42;;;;;;;8.45;3.60;;;;;;;-14.08;61.10;97461.38;6170207;28;20713;-67
2022/11/20 14:36:57;;;;;;;8.00;3.15;;;;;;;-14.22;61.31;97467.53;6169479;28;20430;-67
2022/11/20 14:39:58;;;;;;;6.53;3.58;;;;;;;-14.23;61.41;97463.28;6168413;28;20049;-67
2022/11/20 14:43:16;;;;;;;11.13;5.05;;;;;;;-14.32;61.89;97461.25;6164667;28;20058;-66
2022/11/20 14:46:23;;;;;;;8.48;3.92;;;;;;;-14.42;61.83;97458.28;6176355;28;20046;-66